Terminal Aerodrome Forecast
Issued by NWS

Home | Current Version | Previous Version | Text Only | Print | Product List | Glossary On
Versions: 1 2 3 4 5 6 7 8 9 10 11 12 13 14 15 16 17 18 19 20 21 22 23
000
FTUS45 KGJT 231138
TAFVEL
TAF
KVEL 231138Z 2312/2412 29005KT 2SM -SN BR SCT012 OVC021
      TEMPO 2312/2316 1/2SM SN FZFG BKN012
     FM232000 26009KT 2SM -SN OVC025
     FM240100 VRB03KT 3SM -SN OVC040
     FM240400 VRB03KT P6SM VCSH OVC015=

USA.gov is the U.S. government's official web portal to all federal, state and local government web resources and services.